Terminal Aerodrome Forecast
Issued by NWS

Home | Current Version | Previous Version | Text Only | Print | Product List | Glossary Off
Versions: 1 2 3 4 5 6 7 8 9 10 11 12 13 14 15 16 17 18 19 20 21 22 23

345
FTUS43 KICT 270520
TAFCNU
TAF
KCNU 270520Z 2706/2806 10007KT P6SM VCSH SCT040 BKN060
     FM270700 09009KT P6SM OVC060
     FM271500 11013KT P6SM SCT015 SCT035
     FM271800 16013KT P6SM BKN050=

USA.gov is the U.S. government's official web portal to all federal, state and local government web resources and services.